sensor_id;sensor_type;location;lat;lon;timestamp;temperature;humidity
45207;DHT22;30950;53.086;21.576;2023-06-26T00:00:14;16.70;99.90
45207;DHT22;30950;53.086;21.576;2023-06-26T00:03:02;16.70;99.90
45207;DHT22;30950;53.086;21.576;2023-06-26T00:05:30;16.60;99.90
45207;DHT22;30950;53.086;21.576;2023-06-26T00:07:58;16.50;99.90
45207;DHT22;30950;53.086;21.576;2023-06-26T00:10:27;16.50;99.90
45207;DHT22;30950;53.086;21.576;2023-06-26T00:12:55;16.40;99.90
45207;DHT22;30950;53.086;21.576;2023-06-26T00:15:22;16.40;99.90
45207;DHT22;30950;53.086;21.576;2023-06-26T00:17:50;16.30;99.90
45207;DHT22;30950;53.086;21.576;2023-06-26T00:20:17;16.30;99.90
45207;DHT22;30950;53.086;21.576;2023-06-26T00:22:46;16.20;99.90
45207;DHT22;30950;53.086;21.576;2023-06-26T00:25:13;16.20;99.90
45207;DHT22;30950;53.086;21.576;2023-06-26T00:27:41;16.20;99.90
45207;DHT22;30950;53.086;21.576;2023-06-26T00:30:10;16.10;99.90
45207;DHT22;30950;53.086;21.576;2023-06-26T00:32:38;16.10;99.90
45207;DHT22;30950;53.086;21.576;2023-06-26T00:35:05;16.10;99.90
45207;DHT22;30950;53.086;21.576;2023-06-26T00:37:33;16.10;99.90
45207;DHT22;30950;53.086;21.576;2023-06-26T00:40:00;16.00;99.90
45207;DHT22;30950;53.086;21.576;2023-06-26T00:42:28;16.00;99.90
45207;DHT22;30950;53.086;21.576;2023-06-26T00:44:57;15.90;99.90
45207;DHT22;30950;53.086;21.576;2023-06-26T00:47:24;15.90;99.90
45207;DHT22;30950;53.086;21.576;2023-06-26T00:49:53;15.80;99.90
45207;DHT22;30950;53.086;21.576;2023-06-26T00:52:22;15.80;99.90
45207;DHT22;30950;53.086;21.576;2023-06-26T00:54:51;15.80;99.90
45207;DHT22;30950;53.086;21.576;2023-06-26T00:57:19;15.70;99.90
45207;DHT22;30950;53.086;21.576;2023-06-26T00:59:46;15.60;99.90
45207;DHT22;30950;53.086;21.576;2023-06-26T01:02:14;15.60;99.90
45207;DHT22;30950;53.086;21.576;2023-06-26T01:04:44;15.50;99.90
45207;DHT22;30950;53.086;21.576;2023-06-26T01:07:15;15.50;99.90
45207;DHT22;30950;53.086;21.576;2023-06-26T01:09:43;15.50;99.90
45207;DHT22;30950;53.086;21.576;2023-06-26T01:12:10;15.40;99.90
45207;DHT22;30950;53.086;21.576;2023-06-26T01:14:38;15.40;99.90
45207;DHT22;30950;53.086;21.576;2023-06-26T01:17:06;15.40;99.90
45207;DHT22;30950;53.086;21.576;2023-06-26T01:19:34;15.30;99.90
45207;DHT22;30950;53.086;21.576;2023-06-26T01:27:50;15.20;99.90
45207;DHT22;30950;53.086;21.576;2023-06-26T01:30:20;15.10;99.90
45207;DHT22;30950;53.086;21.576;2023-06-26T01:32:49;15.10;99.90
45207;DHT22;30950;53.086;21.576;2023-06-26T01:35:17;15.00;99.90
45207;DHT22;30950;53.086;21.576;2023-06-26T01:37:45;15.00;99.90
45207;DHT22;30950;53.086;21.576;2023-06-26T01:40:12;14.90;99.90
45207;DHT22;30950;53.086;21.576;2023-06-26T01:42:40;14.90;99.90
45207;DHT22;30950;53.086;21.576;2023-06-26T01:45:14;14.90;99.90
45207;DHT22;30950;53.086;21.576;2023-06-26T01:47:50;14.80;99.90
45207;DHT22;30950;53.086;21.576;2023-06-26T01:50:22;14.80;99.90
45207;DHT22;30950;53.086;21.576;2023-06-26T01:53:15;14.80;99.90
45207;DHT22;30950;53.086;21.576;2023-06-26T01:55:51;14.80;99.90
45207;DHT22;30950;53.086;21.576;2023-06-26T01:58:23;14.70;99.90
45207;DHT22;30950;53.086;21.576;2023-06-26T02:00:51;14.70;99.90
45207;DHT22;30950;53.086;21.576;2023-06-26T02:03:18;14.70;99.90
45207;DHT22;30950;53.086;21.576;2023-06-26T02:05:47;14.70;99.90
45207;DHT22;30950;53.086;21.576;2023-06-26T02:08:15;14.60;99.90
45207;DHT22;30950;53.086;21.576;2023-06-26T02:10:48;14.60;99.90
45207;DHT22;30950;53.086;21.576;2023-06-26T02:13:16;14.60;99.90
45207;DHT22;30950;53.086;21.576;2023-06-26T02:15:43;14.60;99.90
45207;DHT22;30950;53.086;21.576;2023-06-26T02:18:11;14.60;99.90
45207;DHT22;30950;53.086;21.576;2023-06-26T02:20:38;14.60;99.90
45207;DHT22;30950;53.086;21.576;2023-06-26T02:23:07;14.60;99.90
45207;DHT22;30950;53.086;21.576;2023-06-26T02:25:35;14.60;99.90
45207;DHT22;30950;53.086;21.576;2023-06-26T02:28:02;14.60;99.90
45207;DHT22;30950;53.086;21.576;2023-06-26T02:30:30;14.60;99.90
45207;DHT22;30950;53.086;21.576;2023-06-26T02:32:59;14.60;99.90
45207;DHT22;30950;53.086;21.576;2023-06-26T02:35:27;14.50;99.90
45207;DHT22;30950;53.086;21.576;2023-06-26T02:37:54;14.50;99.90
45207;DHT22;30950;53.086;21.576;2023-06-26T02:40:22;14.50;99.90
45207;DHT22;30950;53.086;21.576;2023-06-26T02:42:52;14.50;99.90
45207;DHT22;30950;53.086;21.576;2023-06-26T02:45:19;14.50;99.90
45207;DHT22;30950;53.086;21.576;2023-06-26T02:47:47;14.50;99.90
45207;DHT22;30950;53.086;21.576;2023-06-26T02:50:15;14.50;99.90
45207;DHT22;30950;53.086;21.576;2023-06-26T02:53:12;14.50;99.90
45207;DHT22;30950;53.086;21.576;2023-06-26T02:55:43;14.50;99.90
45207;DHT22;30950;53.086;21.576;2023-06-26T02:58:10;14.50;99.90
45207;DHT22;30950;53.086;21.576;2023-06-26T03:00:38;14.40;99.90
45207;DHT22;30950;53.086;21.576;2023-06-26T03:03:13;14.40;99.90
45207;DHT22;30950;53.086;21.576;2023-06-26T03:05:40;14.40;99.90
45207;DHT22;30950;53.086;21.576;2023-06-26T03:08:08;14.40;99.90
45207;DHT22;30950;53.086;21.576;2023-06-26T03:10:35;14.40;99.90
45207;DHT22;30950;53.086;21.576;2023-06-26T03:13:03;14.40;99.90
45207;DHT22;30950;53.086;21.576;2023-06-26T03:15:31;14.40;99.90
45207;DHT22;30950;53.086;21.576;2023-06-26T03:17:59;14.40;99.90
45207;DHT22;30950;53.086;21.576;2023-06-26T03:20:28;14.50;99.90
45207;DHT22;30950;53.086;21.576;2023-06-26T03:22:57;14.50;99.90
45207;DHT22;30950;53.086;21.576;2023-06-26T03:25:26;14.50;99.90
45207;DHT22;30950;53.086;21.576;2023-06-26T03:28:20;14.50;99.90
45207;DHT22;30950;53.086;21.576;2023-06-26T03:30:47;14.50;99.90
45207;DHT22;30950;53.086;21.576;2023-06-26T03:33:15;14.50;99.90
45207;DHT22;30950;53.086;21.576;2023-06-26T03:35:43;14.50;99.90
45207;DHT22;30950;53.086;21.576;2023-06-26T03:38:13;14.60;99.90
45207;DHT22;30950;53.086;21.576;2023-06-26T03:40:42;14.60;99.90
45207;DHT22;30950;53.086;21.576;2023-06-26T03:43:11;14.50;99.90
45207;DHT22;30950;53.086;21.576;2023-06-26T03:45:45;14.60;99.90
45207;DHT22;30950;53.086;21.576;2023-06-26T03:48:13;14.60;99.90
45207;DHT22;30950;53.086;21.576;2023-06-26T03:50:41;14.60;99.90
45207;DHT22;30950;53.086;21.576;2023-06-26T03:53:09;14.60;99.90
45207;DHT22;30950;53.086;21.576;2023-06-26T03:55:36;14.70;99.90
45207;DHT22;30950;53.086;21.576;2023-06-26T03:58:05;14.70;99.90
45207;DHT22;30950;53.086;21.576;2023-06-26T04:00:33;14.70;99.90
45207;DHT22;30950;53.086;21.576;2023-06-26T04:03:00;14.80;99.90
45207;DHT22;30950;53.086;21.576;2023-06-26T04:05:30;14.80;99.90
45207;DHT22;30950;53.086;21.576;2023-06-26T04:07:58;14.80;99.90
45207;DHT22;30950;53.086;21.576;2023-06-26T04:10:26;14.90;99.90
45207;DHT22;30950;53.086;21.576;2023-06-26T04:12:54;14.90;99.90
45207;DHT22;30950;53.086;21.576;2023-06-26T04:15:21;14.90;99.90
45207;DHT22;30950;53.086;21.576;2023-06-26T04:17:49;14.90;99.90
45207;DHT22;30950;53.086;21.576;2023-06-26T04:20:16;14.90;99.90
45207;DHT22;30950;53.086;21.576;2023-06-26T04:22:44;15.00;99.90
45207;DHT22;30950;53.086;21.576;2023-06-26T04:25:12;15.10;99.90
45207;DHT22;30950;53.086;21.576;2023-06-26T04:27:39;15.20;99.90
45207;DHT22;30950;53.086;21.576;2023-06-26T04:30:08;15.30;99.90
45207;DHT22;30950;53.086;21.576;2023-06-26T04:32:36;15.40;99.90
45207;DHT22;30950;53.086;21.576;2023-06-26T04:35:03;15.50;99.90
45207;DHT22;30950;53.086;21.576;2023-06-26T04:37:31;15.60;99.90
45207;DHT22;30950;53.086;21.576;2023-06-26T04:39:58;15.80;99.90
45207;DHT22;30950;53.086;21.576;2023-06-26T04:42:27;15.90;99.90
45207;DHT22;30950;53.086;21.576;2023-06-26T04:44:54;15.90;99.90
45207;DHT22;30950;53.086;21.576;2023-06-26T04:47:21;16.00;99.90
45207;DHT22;30950;53.086;21.576;2023-06-26T04:49:49;16.10;99.90
45207;DHT22;30950;53.086;21.576;2023-06-26T04:52:16;16.20;99.90
45207;DHT22;30950;53.086;21.576;2023-06-26T04:54:43;16.30;99.90
45207;DHT22;30950;53.086;21.576;2023-06-26T04:57:11;16.30;99.90
45207;DHT22;30950;53.086;21.576;2023-06-26T04:59:39;16.40;99.90
45207;DHT22;30950;53.086;21.576;2023-06-26T05:02:06;16.50;99.90
45207;DHT22;30950;53.086;21.576;2023-06-26T05:04:33;16.60;99.90
45207;DHT22;30950;53.086;21.576;2023-06-26T05:07:01;16.70;99.90
45207;DHT22;30950;53.086;21.576;2023-06-26T05:09:29;16.70;99.90
45207;DHT22;30950;53.086;21.576;2023-06-26T05:11:57;16.80;99.90
45207;DHT22;30950;53.086;21.576;2023-06-26T05:14:24;16.90;99.90
45207;DHT22;30950;53.086;21.576;2023-06-26T05:16:54;17.00;99.90
45207;DHT22;30950;53.086;21.576;2023-06-26T05:19:22;17.20;99.90
45207;DHT22;30950;53.086;21.576;2023-06-26T05:21:50;17.30;99.90
45207;DHT22;30950;53.086;21.576;2023-06-26T05:24:19;17.40;99.90
45207;DHT22;30950;53.086;21.576;2023-06-26T05:26:49;17.50;99.90
45207;DHT22;30950;53.086;21.576;2023-06-26T05:29:16;17.60;99.90
45207;DHT22;30950;53.086;21.576;2023-06-26T05:31:44;17.70;99.90
45207;DHT22;30950;53.086;21.576;2023-06-26T05:34:13;17.90;99.90
45207;DHT22;30950;53.086;21.576;2023-06-26T05:36:42;18.00;99.90
45207;DHT22;30950;53.086;21.576;2023-06-26T05:39:10;18.10;99.90
45207;DHT22;30950;53.086;21.576;2023-06-26T05:41:38;18.20;99.90
45207;DHT22;30950;53.086;21.576;2023-06-26T05:44:05;18.30;99.90
45207;DHT22;30950;53.086;21.576;2023-06-26T05:46:33;18.40;99.90
45207;DHT22;30950;53.086;21.576;2023-06-26T05:49:00;18.60;99.90
45207;DHT22;30950;53.086;21.576;2023-06-26T05:51:29;18.70;99.90
45207;DHT22;30950;53.086;21.576;2023-06-26T05:53:56;18.80;99.90
45207;DHT22;30950;53.086;21.576;2023-06-26T05:56:24;18.90;99.90
45207;DHT22;30950;53.086;21.576;2023-06-26T05:58:52;19.00;99.90
45207;DHT22;30950;53.086;21.576;2023-06-26T06:01:21;19.10;99.90
45207;DHT22;30950;53.086;21.576;2023-06-26T06:03:49;19.20;99.90
45207;DHT22;30950;53.086;21.576;2023-06-26T06:06:19;19.30;99.90
45207;DHT22;30950;53.086;21.576;2023-06-26T06:08:46;19.40;99.90
45207;DHT22;30950;53.086;21.576;2023-06-26T06:11:16;19.50;99.90
45207;DHT22;30950;53.086;21.576;2023-06-26T06:13:43;19.70;99.90
45207;DHT22;30950;53.086;21.576;2023-06-26T06:16:10;19.80;99.90
45207;DHT22;30950;53.086;21.576;2023-06-26T06:18:38;19.90;99.90
45207;DHT22;30950;53.086;21.576;2023-06-26T06:21:05;20.00;99.90
45207;DHT22;30950;53.086;21.576;2023-06-26T06:23:33;20.10;99.90
45207;DHT22;30950;53.086;21.576;2023-06-26T06:26:00;20.20;99.90
45207;DHT22;30950;53.086;21.576;2023-06-26T06:28:28;20.20;99.90
45207;DHT22;30950;53.086;21.576;2023-06-26T06:30:55;20.30;99.90
45207;DHT22;30950;53.086;21.576;2023-06-26T06:33:23;20.40;99.90
45207;DHT22;30950;53.086;21.576;2023-06-26T06:35:50;20.50;99.90
45207;DHT22;30950;53.086;21.576;2023-06-26T06:38:17;20.60;99.90
45207;DHT22;30950;53.086;21.576;2023-06-26T06:40:45;20.70;99.90
45207;DHT22;30950;53.086;21.576;2023-06-26T06:43:12;20.70;99.90
45207;DHT22;30950;53.086;21.576;2023-06-26T06:45:40;20.80;99.90
45207;DHT22;30950;53.086;21.576;2023-06-26T06:48:07;20.80;99.90
45207;DHT22;30950;53.086;21.576;2023-06-26T06:50:35;20.90;99.90
45207;DHT22;30950;53.086;21.576;2023-06-26T06:53:02;21.00;99.90
45207;DHT22;30950;53.086;21.576;2023-06-26T06:55:30;21.10;99.90
45207;DHT22;30950;53.086;21.576;2023-06-26T06:57:58;21.20;99.90
45207;DHT22;30950;53.086;21.576;2023-06-26T07:00:25;21.20;99.90
45207;DHT22;30950;53.086;21.576;2023-06-26T07:02:53;21.30;99.90
45207;DHT22;30950;53.086;21.576;2023-06-26T07:05:21;21.40;99.90
45207;DHT22;30950;53.086;21.576;2023-06-26T07:07:49;21.50;99.90
45207;DHT22;30950;53.086;21.576;2023-06-26T07:10:16;21.60;99.90
45207;DHT22;30950;53.086;21.576;2023-06-26T07:12:43;21.60;99.90
45207;DHT22;30950;53.086;21.576;2023-06-26T07:15:12;21.70;99.90
45207;DHT22;30950;53.086;21.576;2023-06-26T07:17:39;21.80;99.90
45207;DHT22;30950;53.086;21.576;2023-06-26T07:20:07;21.80;99.90
45207;DHT22;30950;53.086;21.576;2023-06-26T07:22:36;21.90;99.90
45207;DHT22;30950;53.086;21.576;2023-06-26T07:25:04;22.00;99.90
45207;DHT22;30950;53.086;21.576;2023-06-26T07:27:40;22.10;99.90
45207;DHT22;30950;53.086;21.576;2023-06-26T07:30:08;22.10;99.90
45207;DHT22;30950;53.086;21.576;2023-06-26T07:32:36;22.20;99.90
45207;DHT22;30950;53.086;21.576;2023-06-26T07:35:05;22.20;99.90
45207;DHT22;30950;53.086;21.576;2023-06-26T07:37:32;22.30;99.90
45207;DHT22;30950;53.086;21.576;2023-06-26T07:39:59;22.40;99.90
45207;DHT22;30950;53.086;21.576;2023-06-26T07:42:27;22.40;99.70
45207;DHT22;30950;53.086;21.576;2023-06-26T07:44:54;22.50;99.20
45207;DHT22;30950;53.086;21.576;2023-06-26T07:47:22;22.60;97.70
45207;DHT22;30950;53.086;21.576;2023-06-26T07:49:49;22.70;97.60
45207;DHT22;30950;53.086;21.576;2023-06-26T07:52:18;22.70;97.80
45207;DHT22;30950;53.086;21.576;2023-06-26T07:54:46;22.80;97.60
45207;DHT22;30950;53.086;21.576;2023-06-26T07:57:13;22.90;96.90
45207;DHT22;30950;53.086;21.576;2023-06-26T07:59:41;22.90;96.20
45207;DHT22;30950;53.086;21.576;2023-06-26T08:02:08;23.00;95.70
45207;DHT22;30950;53.086;21.576;2023-06-26T08:04:36;23.10;95.90
45207;DHT22;30950;53.086;21.576;2023-06-26T08:07:04;23.20;95.30
45207;DHT22;30950;53.086;21.576;2023-06-26T08:09:32;23.30;94.20
45207;DHT22;30950;53.086;21.576;2023-06-26T08:11:59;23.30;93.30
45207;DHT22;30950;53.086;21.576;2023-06-26T08:14:27;23.40;92.70
45207;DHT22;30950;53.086;21.576;2023-06-26T08:16:55;23.40;91.00
45207;DHT22;30950;53.086;21.576;2023-06-26T08:19:23;23.40;90.80
45207;DHT22;30950;53.086;21.576;2023-06-26T08:21:50;23.40;90.60
45207;DHT22;30950;53.086;21.576;2023-06-26T08:24:17;23.50;90.50
45207;DHT22;30950;53.086;21.576;2023-06-26T08:26:47;23.60;90.20
45207;DHT22;30950;53.086;21.576;2023-06-26T08:29:15;23.60;90.90
45207;DHT22;30950;53.086;21.576;2023-06-26T08:31:43;23.80;90.40
45207;DHT22;30950;53.086;21.576;2023-06-26T08:34:11;24.00;89.30
45207;DHT22;30950;53.086;21.576;2023-06-26T08:36:38;24.20;88.60
45207;DHT22;30950;53.086;21.576;2023-06-26T08:39:06;24.30;84.90
45207;DHT22;30950;53.086;21.576;2023-06-26T08:41:35;24.40;80.90
45207;DHT22;30950;53.086;21.576;2023-06-26T08:44:04;24.50;80.50
45207;DHT22;30950;53.086;21.576;2023-06-26T08:46:32;24.60;80.90
45207;DHT22;30950;53.086;21.576;2023-06-26T08:49:31;24.70;81.60
45207;DHT22;30950;53.086;21.576;2023-06-26T08:52:31;24.80;75.00
45207;DHT22;30950;53.086;21.576;2023-06-26T08:55:02;24.80;75.60
45207;DHT22;30950;53.086;21.576;2023-06-26T08:57:33;24.80;75.40
45207;DHT22;30950;53.086;21.576;2023-06-26T09:00:02;24.80;71.70
45207;DHT22;30950;53.086;21.576;2023-06-26T09:02:30;24.80;69.80
45207;DHT22;30950;53.086;21.576;2023-06-26T09:04:58;24.90;70.10
45207;DHT22;30950;53.086;21.576;2023-06-26T09:07:25;24.90;69.90
45207;DHT22;30950;53.086;21.576;2023-06-26T09:09:53;24.90;69.30
45207;DHT22;30950;53.086;21.576;2023-06-26T09:12:20;25.00;68.80
45207;DHT22;30950;53.086;21.576;2023-06-26T09:14:49;25.10;68.50
45207;DHT22;30950;53.086;21.576;2023-06-26T09:17:17;25.10;67.70
45207;DHT22;30950;53.086;21.576;2023-06-26T09:19:48;25.10;66.90
45207;DHT22;30950;53.086;21.576;2023-06-26T09:22:17;25.20;65.60
45207;DHT22;30950;53.086;21.576;2023-06-26T09:24:45;25.10;65.00
45207;DHT22;30950;53.086;21.576;2023-06-26T09:27:13;25.20;65.40
45207;DHT22;30950;53.086;21.576;2023-06-26T09:29:41;25.20;64.90
45207;DHT22;30950;53.086;21.576;2023-06-26T09:32:08;25.20;63.10
45207;DHT22;30950;53.086;21.576;2023-06-26T09:34:36;25.20;62.60
45207;DHT22;30950;53.086;21.576;2023-06-26T09:37:08;25.30;58.70
45207;DHT22;30950;53.086;21.576;2023-06-26T09:39:35;25.30;58.10
45207;DHT22;30950;53.086;21.576;2023-06-26T09:42:03;25.40;58.30
45207;DHT22;30950;53.086;21.576;2023-06-26T09:44:33;25.40;57.40
45207;DHT22;30950;53.086;21.576;2023-06-26T09:47:02;25.60;57.70
45207;DHT22;30950;53.086;21.576;2023-06-26T09:49:31;25.60;56.60
45207;DHT22;30950;53.086;21.576;2023-06-26T09:52:00;25.70;56.90
45207;DHT22;30950;53.086;21.576;2023-06-26T09:54:33;25.70;54.60
45207;DHT22;30950;53.086;21.576;2023-06-26T09:57:10;25.70;55.60
45207;DHT22;30950;53.086;21.576;2023-06-26T09:59:38;25.80;54.50
45207;DHT22;30950;53.086;21.576;2023-06-26T10:02:06;25.80;55.90
45207;DHT22;30950;53.086;21.576;2023-06-26T10:04:36;25.90;54.80
45207;DHT22;30950;53.086;21.576;2023-06-26T10:07:10;26.00;56.20
45207;DHT22;30950;53.086;21.576;2023-06-26T10:09:42;26.00;53.40
45207;DHT22;30950;53.086;21.576;2023-06-26T10:12:19;26.00;54.40
45207;DHT22;30950;53.086;21.576;2023-06-26T10:14:50;26.00;53.60
45207;DHT22;30950;53.086;21.576;2023-06-26T10:17:20;26.10;54.00
45207;DHT22;30950;53.086;21.576;2023-06-26T10:19:51;26.10;53.60
45207;DHT22;30950;53.086;21.576;2023-06-26T10:22:22;26.00;53.40
45207;DHT22;30950;53.086;21.576;2023-06-26T10:24:52;25.90;53.00
45207;DHT22;30950;53.086;21.576;2023-06-26T10:27:25;25.90;53.30
45207;DHT22;30950;53.086;21.576;2023-06-26T10:29:55;26.10;52.70
45207;DHT22;30950;53.086;21.576;2023-06-26T10:32:25;26.50;52.90
45207;DHT22;30950;53.086;21.576;2023-06-26T10:34:55;27.00;51.80
45207;DHT22;30950;53.086;21.576;2023-06-26T10:37:44;27.40;51.70
45207;DHT22;30950;53.086;21.576;2023-06-26T10:40:13;28.10;51.50
45207;DHT22;30950;53.086;21.576;2023-06-26T10:42:41;28.50;50.30
45207;DHT22;30950;53.086;21.576;2023-06-26T10:45:30;28.80;48.00
45207;DHT22;30950;53.086;21.576;2023-06-26T10:47:57;29.10;49.60
45207;DHT22;30950;53.086;21.576;2023-06-26T10:50:28;29.30;48.60
45207;DHT22;30950;53.086;21.576;2023-06-26T10:53:26;29.20;47.40
45207;DHT22;30950;53.086;21.576;2023-06-26T10:56:03;29.00;46.30
45207;DHT22;30950;53.086;21.576;2023-06-26T11:01:14;28.40;46.10
45207;DHT22;30950;53.086;21.576;2023-06-26T11:03:46;28.10;46.70
45207;DHT22;30950;53.086;21.576;2023-06-26T11:06:20;27.90;47.20
45207;DHT22;30950;53.086;21.576;2023-06-26T11:14:22;27.60;49.00
45207;DHT22;30950;53.086;21.576;2023-06-26T11:16:50;27.60;49.00
45207;DHT22;30950;53.086;21.576;2023-06-26T11:19:19;27.60;48.50
45207;DHT22;30950;53.086;21.576;2023-06-26T11:21:48;27.60;48.90
45207;DHT22;30950;53.086;21.576;2023-06-26T11:24:17;27.60;48.10
45207;DHT22;30950;53.086;21.576;2023-06-26T11:26:45;27.50;48.40
45207;DHT22;30950;53.086;21.576;2023-06-26T11:29:13;27.40;49.10
45207;DHT22;30950;53.086;21.576;2023-06-26T11:31:42;27.40;50.00
45207;DHT22;30950;53.086;21.576;2023-06-26T11:34:13;27.30;49.70
45207;DHT22;30950;53.086;21.576;2023-06-26T11:36:42;27.20;49.70
45207;DHT22;30950;53.086;21.576;2023-06-26T11:39:12;27.10;49.30
45207;DHT22;30950;53.086;21.576;2023-06-26T11:41:40;27.10;50.30
45207;DHT22;30950;53.086;21.576;2023-06-26T11:44:09;27.10;50.30
45207;DHT22;30950;53.086;21.576;2023-06-26T11:46:38;27.20;50.60
45207;DHT22;30950;53.086;21.576;2023-06-26T11:49:06;27.30;50.30
45207;DHT22;30950;53.086;21.576;2023-06-26T11:52:02;27.30;50.50
45207;DHT22;30950;53.086;21.576;2023-06-26T11:54:30;27.40;50.50
45207;DHT22;30950;53.086;21.576;2023-06-26T11:56:59;27.60;49.60
45207;DHT22;30950;53.086;21.576;2023-06-26T11:59:37;27.70;47.80
45207;DHT22;30950;53.086;21.576;2023-06-26T12:02:06;27.70;47.50
45207;DHT22;30950;53.086;21.576;2023-06-26T12:04:35;27.80;47.00
45207;DHT22;30950;53.086;21.576;2023-06-26T12:07:05;27.90;46.60
45207;DHT22;30950;53.086;21.576;2023-06-26T12:09:41;27.90;47.20
45207;DHT22;30950;53.086;21.576;2023-06-26T12:12:11;27.90;46.30
45207;DHT22;30950;53.086;21.576;2023-06-26T12:14:39;28.00;46.20
45207;DHT22;30950;53.086;21.576;2023-06-26T12:17:10;28.10;46.60
45207;DHT22;30950;53.086;21.576;2023-06-26T12:19:47;28.10;47.00
45207;DHT22;30950;53.086;21.576;2023-06-26T12:22:16;28.20;47.50
45207;DHT22;30950;53.086;21.576;2023-06-26T12:24:45;28.40;47.60
45207;DHT22;30950;53.086;21.576;2023-06-26T12:27:15;28.70;48.30
45207;DHT22;30950;53.086;21.576;2023-06-26T12:29:53;28.90;47.50
45207;DHT22;30950;53.086;21.576;2023-06-26T12:32:24;29.20;47.40
45207;DHT22;30950;53.086;21.576;2023-06-26T12:34:53;29.60;47.60
45207;DHT22;30950;53.086;21.576;2023-06-26T12:37:23;30.20;47.40
45207;DHT22;30950;53.086;21.576;2023-06-26T12:39:57;30.90;47.60
45207;DHT22;30950;53.086;21.576;2023-06-26T12:42:27;31.50;45.10
45207;DHT22;30950;53.086;21.576;2023-06-26T12:44:55;31.90;45.20
45207;DHT22;30950;53.086;21.576;2023-06-26T12:47:27;32.50;45.80
45207;DHT22;30950;53.086;21.576;2023-06-26T12:49:55;33.10;45.30
45207;DHT22;30950;53.086;21.576;2023-06-26T12:52:25;33.70;44.10
45207;DHT22;30950;53.086;21.576;2023-06-26T12:54:55;34.30;43.70
45207;DHT22;30950;53.086;21.576;2023-06-26T12:57:24;34.40;40.70
45207;DHT22;30950;53.086;21.576;2023-06-26T12:59:51;34.40;40.60
45207;DHT22;30950;53.086;21.576;2023-06-26T13:02:19;34.30;40.80
45207;DHT22;30950;53.086;21.576;2023-06-26T13:04:46;34.10;40.50
45207;DHT22;30950;53.086;21.576;2023-06-26T13:07:14;33.70;40.30
45207;DHT22;30950;53.086;21.576;2023-06-26T13:09:41;33.40;40.30
45207;DHT22;30950;53.086;21.576;2023-06-26T13:12:09;33.00;40.80
45207;DHT22;30950;53.086;21.576;2023-06-26T13:14:36;32.60;41.60
45207;DHT22;30950;53.086;21.576;2023-06-26T13:17:06;32.20;41.40
45207;DHT22;30950;53.086;21.576;2023-06-26T13:19:36;31.80;41.70
45207;DHT22;30950;53.086;21.576;2023-06-26T13:22:03;31.60;42.30
45207;DHT22;30950;53.086;21.576;2023-06-26T13:24:31;31.50;42.50
45207;DHT22;30950;53.086;21.576;2023-06-26T13:26:58;31.90;42.80
45207;DHT22;30950;53.086;21.576;2023-06-26T13:29:26;32.30;42.00
45207;DHT22;30950;53.086;21.576;2023-06-26T13:31:53;32.30;40.90
45207;DHT22;30950;53.086;21.576;2023-06-26T13:34:22;32.00;41.10
45207;DHT22;30950;53.086;21.576;2023-06-26T13:36:56;31.70;41.50
45207;DHT22;30950;53.086;21.576;2023-06-26T13:39:24;31.50;41.70
45207;DHT22;30950;53.086;21.576;2023-06-26T13:41:51;31.70;42.60
45207;DHT22;30950;53.086;21.576;2023-06-26T13:44:18;32.10;42.60
45207;DHT22;30950;53.086;21.576;2023-06-26T13:46:56;32.40;41.90
45207;DHT22;30950;53.086;21.576;2023-06-26T13:49:24;32.60;40.80
45207;DHT22;30950;53.086;21.576;2023-06-26T13:51:51;32.70;41.30
45207;DHT22;30950;53.086;21.576;2023-06-26T13:54:19;32.60;40.20
45207;DHT22;30950;53.086;21.576;2023-06-26T13:56:46;32.10;40.30
45207;DHT22;30950;53.086;21.576;2023-06-26T13:59:13;31.60;41.00
45207;DHT22;30950;53.086;21.576;2023-06-26T14:01:42;31.50;41.40
45207;DHT22;30950;53.086;21.576;2023-06-26T14:04:11;31.50;41.20
45207;DHT22;30950;53.086;21.576;2023-06-26T14:06:38;31.60;41.10
45207;DHT22;30950;53.086;21.576;2023-06-26T14:09:06;32.00;41.70
45207;DHT22;30950;53.086;21.576;2023-06-26T14:11:34;32.50;40.90
45207;DHT22;30950;53.086;21.576;2023-06-26T14:14:02;32.70;40.40
45207;DHT22;30950;53.086;21.576;2023-06-26T14:16:30;33.20;40.20
45207;DHT22;30950;53.086;21.576;2023-06-26T14:18:57;33.60;39.70
45207;DHT22;30950;53.086;21.576;2023-06-26T14:21:25;33.90;38.80
45207;DHT22;30950;53.086;21.576;2023-06-26T14:23:53;33.80;38.20
45207;DHT22;30950;53.086;21.576;2023-06-26T14:26:21;33.90;38.40
45207;DHT22;30950;53.086;21.576;2023-06-26T14:28:48;33.90;38.50
45207;DHT22;30950;53.086;21.576;2023-06-26T14:31:15;33.90;37.80
45207;DHT22;30950;53.086;21.576;2023-06-26T14:33:43;33.90;37.80
45207;DHT22;30950;53.086;21.576;2023-06-26T14:36:10;33.90;37.70
45207;DHT22;30950;53.086;21.576;2023-06-26T14:38:37;33.90;38.00
45207;DHT22;30950;53.086;21.576;2023-06-26T14:41:05;33.80;37.80
45207;DHT22;30950;53.086;21.576;2023-06-26T14:43:33;33.50;37.70
45207;DHT22;30950;53.086;21.576;2023-06-26T14:46:01;33.30;37.70
45207;DHT22;30950;53.086;21.576;2023-06-26T14:48:28;33.10;38.00
45207;DHT22;30950;53.086;21.576;2023-06-26T14:50:57;32.90;38.30
45207;DHT22;30950;53.086;21.576;2023-06-26T14:53:24;32.70;38.10
45207;DHT22;30950;53.086;21.576;2023-06-26T14:55:54;32.40;38.60
45207;DHT22;30950;53.086;21.576;2023-06-26T14:58:22;32.30;38.80
45207;DHT22;30950;53.086;21.576;2023-06-26T15:00:50;32.40;39.70
45207;DHT22;30950;53.086;21.576;2023-06-26T15:03:17;32.70;39.20
45207;DHT22;30950;53.086;21.576;2023-06-26T15:05:45;32.80;39.00
45207;DHT22;30950;53.086;21.576;2023-06-26T15:08:12;33.00;38.50
45207;DHT22;30950;53.086;21.576;2023-06-26T15:10:40;33.20;38.80
45207;DHT22;30950;53.086;21.576;2023-06-26T15:13:08;33.40;38.70
45207;DHT22;30950;53.086;21.576;2023-06-26T15:15:35;33.60;38.30
45207;DHT22;30950;53.086;21.576;2023-06-26T15:18:03;33.70;38.30
45207;DHT22;30950;53.086;21.576;2023-06-26T15:20:32;33.40;37.60
45207;DHT22;30950;53.086;21.576;2023-06-26T15:22:59;33.30;37.60
45207;DHT22;30950;53.086;21.576;2023-06-26T15:25:27;32.90;37.80
45207;DHT22;30950;53.086;21.576;2023-06-26T15:27:55;32.50;38.20
45207;DHT22;30950;53.086;21.576;2023-06-26T15:30:23;31.90;38.50
45207;DHT22;30950;53.086;21.576;2023-06-26T15:32:50;31.40;38.60
45207;DHT22;30950;53.086;21.576;2023-06-26T15:35:18;31.00;39.20
45207;DHT22;30950;53.086;21.576;2023-06-26T15:37:45;30.80;39.90
45207;DHT22;30950;53.086;21.576;2023-06-26T15:40:13;30.80;40.20